• Join FlightAware (Why Join?)
  • Login
  • US Flag 
01:40PM EDT


 

Airport Tracker/Info


-or-


 

Live Flight TrackerFlight Track Log ✈ AFR3886 ✈ 01-May-2013 ✈ LFPG / CDG - OJAI / AMM

Flight Track Log - Related Links

Times and Time Zones

All times are in EDT time to prevent confusion due to time zone crossing. See the AFR3886 flight status page for this flight to view local times or setup timezone preferences in your user account.

Time Position Orientation Groundspeed Altitude Reporting Facility
EDT Latitude Longitude Course Direction KTS MPH feet Rate Location/Type
08:07AM 48.9978 2.5939 85° East 169 194 400  Level FlightAware ADS-B
08:08AM 48.9986 2.6102 86° East 164 189 900 2,460 Climbing FlightAware ADS-B
08:08AM 48.9994 2.6276 86° East 163 188 1,600 2,580 Climbing FlightAware ADS-B
08:08AM 49.0004 2.6452 85° East 161 185 2,200 1,980 Climbing FlightAware ADS-B
08:08AM 49.0013 2.6621 85° East 164 189 2,600 1,500 Climbing FlightAware ADS-B
08:09AM 49.0022 2.6802 86° East 168 193 3,000 1,500 Climbing FlightAware ADS-B
08:09AM 49.0032 2.6978 85° East 167 192 3,400 1,200 Climbing FlightAware ADS-B
08:09AM 49.0042 2.7166 85° East 181 208 3,600 780 Climbing FlightAware ADS-B
08:09AM 49.0053 2.7369 85° East 200 230 3,800 840 Climbing FlightAware ADS-B
08:10AM 49.0069 2.7664 85° East 217 250 4,100 780 Climbing FlightAware ADS-B
08:10AM 49.0072 2.7812 88° East 232 267 4,200 780 Climbing FlightAware ADS-B
08:10AM 49.0052 2.8052 97° East 252 290 4,400 1,500 Climbing FlightAware ADS-B
08:10AM 49.0012 2.8421 99° East 252 290 5,100 2,100 Climbing FlightAware ADS-B
08:11AM 48.9978 2.8728 100° East 268 308 5,700 2,580 Climbing FlightAware ADS-B
08:11AM 48.9945 2.9020 100° East 268 308 6,500 2,520 Climbing FlightAware ADS-B
08:12AM 48.9869 2.9774 99° East 268 308 8,100 2,340 Climbing FlightAware ADS-B
08:12AM 48.9824 3.0322 97° East 278 320 9,200 2,220 Climbing FlightAware ADS-B
08:13AM 48.9720 3.1550 97° East 287 330 11,600 1,620 Climbing FlightAware
08:14AM 48.9650 3.2320 98° East 318 366 12,100 1,080 Climbing FlightAware
08:15AM 48.9540 3.3660 97° East 356 410 13,300 1,680 Climbing FlightAware
08:15AM 48.9470 3.4530 97° East 362 417 14,500 1,740 Climbing FlightAware
08:16AM 48.9360 3.5530 99° East 372 428 15,500 1,620 Climbing FlightAware
08:17AM 48.9090 3.6660 110° East 376 433 17,000 2,040 Climbing FlightAware
08:17AM 48.8966 3.7182 110° East 375 432 17,700 2,100 Climbing FlightAware ADS-B
08:17AM 48.8786 3.7951 110° East 379 436 18,600 1,800 Climbing FlightAware ADS-B
08:18AM 48.8561 3.8915 109° East 381 438 19,800 1,500 Climbing FlightAware ADS-B
08:19AM 48.8360 3.9780 109° East 385 443 20,600 1,140 Climbing FlightAware
08:19AM 48.8140 4.0710 110° East 392 451 21,300 1,200 Climbing FlightAware
08:20AM 48.7860 4.1910 109° East 400 460 22,200 1,200 Climbing FlightAware
08:21AM 48.7580 4.3120 109° East 407 468 23,100 1,260 Climbing FlightAware
08:22AM 48.7320 4.4190 110° East 411 473 24,000 1,200 Climbing FlightAware
08:22AM 48.7030 4.5410 110° East 422 486 24,800 1,080 Climbing FlightAware
08:23AM 48.6760 4.6560 110° East 423 487 25,600 1,020 Climbing FlightAware
08:24AM 48.6490 4.7660 110° East 426 490 26,200 840 Climbing FlightAware
08:24AM 48.6260 4.8600 110° East 433 498 26,700 900 Climbing FlightAware
08:25AM 48.5970 4.9830 110° East 435 501 27,400 900 Climbing FlightAware
08:26AM 48.5600 5.1340 110° East 435 501 28,200 840 Climbing FlightAware
08:26AM 48.5330 5.2440 110° East 439 505 28,700 660 Climbing FlightAware
08:27AM 48.5030 5.3640 111° Southeast 446 513 29,100 660 Climbing FlightAware
08:28AM 48.4680 5.5060 110° East 452 520 29,700 900 Climbing FlightAware
08:29AM 48.4400 5.6180 111° Southeast 450 518 30,400 960 Climbing FlightAware
08:29AM 48.4100 5.7390 110° East 451 519 31,000 1,260 Climbing FlightAware
08:30AM 48.3770 5.8690 111° Southeast 433 498 32,200 1,380 Climbing FlightAware
08:31AM 48.3490 5.9800 111° Southeast 424 488 33,000 720 Climbing FlightAware
08:31AM 48.3160 6.1080 111° Southeast 430 495 33,300 600 Climbing FlightAware
08:32AM 48.2880 6.2180 111° Southeast 428 493 33,900 900 Climbing FlightAware
08:33AM 48.2590 6.3310 111° Southeast 423 487 34,500 720 Climbing FlightAware
08:33AM 48.2280 6.4510 111° Southeast 421 484 35,000 300 Climbing FlightAware
08:34AM 48.1980 6.5640 112° Southeast 430 495 35,000  Level FlightAware
08:35AM 48.1680 6.6780 111° Southeast 431 496 35,000  Level FlightAware
08:36AM 48.1130 6.8880 111° Southeast 436 502 35,000  Level FlightAware
08:37AM 48.0650 7.0670 112° Southeast 436 502 35,000  Level FlightAware
08:38AM 48.0240 7.2220 112° Southeast 435 501 35,000  Level FlightAware
08:39AM 47.9900 7.3490 112° Southeast 435 501 35,000  Level FlightAware
08:39AM 47.9610 7.4560 112° Southeast 436 502 35,000  Level FlightAware
08:41AM 47.9040 7.6660 112° Southeast 436 502 35,000  Level FlightAware
08:42AM 47.8470 7.8860 111° Southeast 440 506 35,000  Level FlightAware
08:43AM 47.8220 8.0080 107° East 442 509 35,000  Level FlightAware
08:44AM 47.7940 8.1410 107° East 444 511 35,000  Level FlightAware
08:44AM 47.7700 8.2570 107° East 443 510 35,000  Level FlightAware
08:47AM 47.6526 8.5938 117° Southeast  Level Estimated
08:48AM 47.6012 8.7397 118° Southeast  Level Estimated
08:49AM 47.5497 8.8854 118° Southeast  Level Estimated
08:50AM 47.4979 9.0308 118° Southeast  Level Estimated
08:51AM 47.4460 9.1758 118° Southeast  Level Estimated
08:52AM 47.3939 9.3206 118° Southeast  Level Estimated
08:53AM 47.3416 9.4651 118° Southeast  Level Estimated
08:54AM 47.2894 9.6088 118° Southeast  Level Estimated
08:55AM 47.2369 9.7523 118° Southeast  Level Estimated
08:56AM 47.1843 9.8954 118° Southeast  Level Estimated
08:56AM 47.2010 10.2070 118° Southeast 450 518 35,000  Level FlightAware
08:58AM 47.0960 10.5260 116° Southeast 448 516 35,000  Level FlightAware
08:59AM 47.0530 10.6430 118° Southeast 443 510 35,000  Level FlightAware
08:59AM 46.9990 10.7350 131° Southeast 439 505 35,000  Level FlightAware
09:00AM 46.9420 10.8300 131° Southeast 437 503 35,000  Level FlightAware
09:01AM 46.8860 10.9220 132° Southeast 437 503 35,000  Level FlightAware
09:01AM 46.8310 11.0100 132° Southeast 438 504 35,000  Level FlightAware
09:02AM 46.7780 11.0950 132° Southeast 432 497 35,000  Level FlightAware
09:03AM 46.7160 11.1920 133° Southeast 426 490 35,000  Level FlightAware
09:04AM 46.6610 11.2770 133° Southeast 430 495 35,000  Level FlightAware
09:04AM 46.5990 11.3750 133° Southeast 435 501 35,000  Level FlightAware
09:05AM 46.5440 11.4610 133° Southeast 436 502 35,000  Level FlightAware
09:06AM 46.4820 11.5570 133° Southeast 436 502 35,000  Level FlightAware
09:06AM 46.4260 11.6450 133° Southeast 435 501 35,000  Level FlightAware
09:07AM 46.3750 11.7220 134° Southeast 436 502 35,000  Level FlightAware
09:08AM 46.3130 11.8180 133° Southeast 435 501 35,000  Level FlightAware
09:08AM 46.2500 11.9150 133° Southeast 443 510 35,000  Level FlightAware
09:09AM 46.1880 12.0100 133° Southeast 445 512 35,000  Level FlightAware
09:10AM 46.1310 12.0980 133° Southeast 448 516 35,000  Level FlightAware
09:11AM 46.0750 12.2030 128° Southeast 446 513 35,000  Level FlightAware
09:11AM 46.0240 12.3010 127° Southeast 445 512 35,000  Level FlightAware
09:12AM 45.9750 12.3950 127° Southeast 444 511 35,000  Level FlightAware
09:13AM 45.9190 12.5020 127° Southeast 451 519 35,000  Level FlightAware
09:13AM 45.8680 12.5980 127° Southeast 452 520 35,000  Level FlightAware
09:14AM 45.8120 12.7040 127° Southeast 451 519 35,000  Level FlightAware
09:15AM 45.7630 12.7970 127° Southeast 451 519 35,000  Level FlightAware
09:15AM 45.7110 12.8950 127° Southeast 452 520 35,000  Level FlightAware
09:16AM 45.6530 13.0030 128° Southeast 453 521 35,000  Level FlightAware
09:17AM 45.6040 13.0940 128° Southeast 453 521 35,000  Level FlightAware
09:18AM 45.5450 13.2040 127° Southeast 451 519 35,000  Level FlightAware
09:18AM 45.4940 13.2980 128° Southeast 451 519 35,000  Level FlightAware
09:19AM 45.4390 13.3990 128° Southeast 452 520 35,000  Level FlightAware
09:20AM 45.3880 13.4930 128° Southeast 452 520 35,000  Level FlightAware
09:20AM 45.3370 13.5870 128° Southeast 454 522 35,000  Level FlightAware
09:21AM 45.2780 13.6950 128° Southeast 450 518 35,000  Level FlightAware
09:22AM 45.2260 13.7910 128° Southeast 450 518 35,000  Level FlightAware
09:23AM 45.1670 13.8970 128° Southeast 450 518 35,000  Level FlightAware
09:23AM 45.1160 13.9890 128° Southeast 450 518 35,000  Level FlightAware
09:24AM 45.0630 14.0840 128° Southeast 451 519 35,000  Level FlightAware
09:24AM 45.0200 14.1620 128° Southeast 451 519 35,000  Level FlightAware
09:25AM 44.9590 14.2720 128° Southeast 450 518 35,000  Level FlightAware
09:26AM 44.9060 14.3660 129° Southeast 451 519 35,000  Level FlightAware
09:27AM 44.8560 14.4560 128° Southeast 452 520 35,000  Level FlightAware
09:27AM 44.7970 14.5590 129° Southeast 454 522 35,000  Level FlightAware
09:28AM 44.7440 14.6520 129° Southeast 461 531 35,000  Level FlightAware
09:29AM 44.6850 14.7570 128° Southeast 462 532 35,000  Level FlightAware
09:29AM 44.6310 14.8510 129° Southeast 462 532 35,000  Level FlightAware
09:30AM 44.5780 14.9450 128° Southeast 462 532 35,000  Level FlightAware
09:31AM 44.5180 15.0480 129° Southeast 462 532 35,000  Level FlightAware
09:31AM 44.4790 15.1170 128° Southeast 461 531 35,000  Level FlightAware
09:32AM 44.4400 15.1840 129° Southeast 462 532 35,000  Level FlightAware
09:33AM 44.3780 15.2910 129° Southeast 462 532 35,000  Level FlightAware
09:33AM 44.3290 15.3760 129° Southeast 464 534 35,000  Level FlightAware
09:34AM 44.2690 15.4790 129° Southeast 464 534 35,000  Level FlightAware
09:35AM 44.2050 15.5880 129° Southeast 464 534 35,000  Level FlightAware
09:35AM 44.1520 15.6780 129° Southeast 464 534 35,000  Level FlightAware
09:36AM 44.0890 15.7860 129° Southeast 464 534 35,000  Level FlightAware
09:37AM 44.0350 15.8770 130° Southeast 463 533 35,000  Level FlightAware
09:37AM 43.9780 15.9730 130° Southeast 462 532 35,000  Level FlightAware
09:38AM 43.9200 16.0710 129° Southeast 461 531 35,000  Level FlightAware
09:39AM 43.8650 16.1630 130° Southeast 461 531 35,000  Level FlightAware
09:40AM 43.8040 16.2640 130° Southeast 457 526 35,000  Level FlightAware
09:40AM 43.7500 16.3540 130° Southeast 458 527 35,000  Level FlightAware
09:41AM 43.6970 16.4420 130° Southeast 458 527 35,000  Level FlightAware
09:42AM 43.6330 16.5480 130° Southeast 457 526 35,000  Level FlightAware
09:42AM 43.5810 16.6340 130° Southeast 457 526 35,000  Level FlightAware
09:43AM 43.5160 16.7400 130° Southeast 457 526 35,000  Level FlightAware
09:44AM 43.4620 16.8300 130° Southeast 459 528 35,000  Level FlightAware
09:44AM 43.4070 16.9190 130° Southeast 462 532 35,000  Level FlightAware
09:45AM 43.3430 17.0230 130° Southeast 470 541 35,000  Level FlightAware
09:46AM 43.2870 17.1140 130° Southeast 471 542 35,000  Level FlightAware
09:47AM 43.2250 17.2140 130° Southeast 470 541 35,000  Level FlightAware
09:47AM 43.1670 17.3070 131° Southeast 469 540 35,000  Level FlightAware
09:48AM 43.1110 17.3970 130° Southeast 467 537 35,000  Level FlightAware
09:49AM 43.0490 17.4960 131° Southeast 466 536 35,000  Level FlightAware
09:49AM 42.9920 17.5880 130° Southeast 466 536 35,000  Level FlightAware
09:50AM 42.9300 17.6870 131° Southeast 466 536 35,000  Level FlightAware
09:51AM 42.8730 17.7770 131° Southeast 465 535 35,000  Level FlightAware
09:51AM 42.8180 17.8630 131° Southeast 465 535 35,000  Level FlightAware
09:52AM 42.7540 17.9630 131° Southeast 465 535 35,000  Level FlightAware
09:53AM 42.6980 18.0530 130° Southeast 464 534 35,000  Level FlightAware
09:53AM 42.6380 18.1450 132° Southeast 462 532 35,000  Level FlightAware
09:54AM 42.5730 18.2350 134° Southeast 460 529 35,000  Level FlightAware
09:55AM 42.5140 18.3160 135° Southeast 458 527 35,000  Level FlightAware
09:56AM 42.4460 18.4100 134° Southeast 458 527 35,000  Level FlightAware
09:56AM 42.3870 18.4910 135° Southeast 458 527 35,000  Level FlightAware
09:57AM 42.3260 18.5740 135° Southeast 458 527 35,000  Level FlightAware
09:58AM 42.2620 18.6610 135° Southeast 458 527 35,000  Level FlightAware
09:58AM 42.2060 18.7370 135° Southeast 459 528 35,000  Level FlightAware
09:59AM 42.1360 18.8310 135° Southeast 460 529 35,000  Level FlightAware
10:00AM 42.0750 18.9130 135° Southeast 460 529 35,000  Level FlightAware
10:01AM 42.0090 19.0020 135° Southeast 459 528 35,000  Level FlightAware
10:01AM 41.9490 19.0830 135° Southeast 458 527 35,000  Level FlightAware
10:02AM 41.8870 19.1650 135° Southeast 458 527 35,000  Level FlightAware
10:03AM 41.8180 19.2550 136° Southeast 452 520 35,000  Level FlightAware
10:03AM 41.7570 19.3330 136° Southeast 453 521 35,000  Level FlightAware
10:04AM 41.6990 19.4080 136° Southeast 454 522 35,000  Level FlightAware
10:05AM 41.6250 19.5030 136° Southeast 459 528 35,000  Level FlightAware
10:05AM 41.5640 19.5810 136° Southeast 458 527 35,000  Level FlightAware
10:06AM 41.4950 19.6680 137° Southeast 456 525 35,000  Level FlightAware
10:07AM 41.4340 19.7450 137° Southeast 455 524 35,000  Level FlightAware
10:08AM 41.3650 19.8330 136° Southeast 451 519 35,000  Level FlightAware
10:08AM 41.3060 19.9070 137° Southeast 448 516 35,000  Level FlightAware
10:09AM 41.2440 19.9850 137° Southeast 444 511 35,000  Level FlightAware
10:10AM 41.1790 20.0670 136° Southeast 441 507 35,000  Level FlightAware
10:10AM 41.1200 20.1400 137° Southeast 440 506 35,000  Level FlightAware
10:11AM 41.0540 20.2220 137° Southeast 440 506 35,000  Level FlightAware
10:12AM 40.9920 20.3000 136° Southeast 436 502 35,000  Level FlightAware
10:12AM 40.9340 20.3710 137° Southeast 433 498 35,000  Level FlightAware
10:13AM 40.8690 20.4510 137° Southeast 435 501 35,000  Level FlightAware
10:14AM 40.8100 20.5240 137° Southeast 439 505 35,000 120 Level FlightAware
10:15AM 40.7420 20.6080 137° Southeast 440 506 35,200 240 Climbing FlightAware
10:15AM 40.6920 20.6880 129° Southeast 447 514 35,400 240 Climbing FlightAware
10:16AM 40.6410 20.7760 127° Southeast 450 518 35,600 480 Climbing FlightAware
10:17AM 40.5900 20.8650 127° Southeast 448 516 36,200 660 Climbing FlightAware
10:17AM 40.5410 20.9490 127° Southeast 448 516 36,500 420 Climbing FlightAware
10:18AM 40.4900 21.0370 127° Southeast 449 517 36,800 300 Climbing FlightAware
10:19AM 40.4370 21.1320 126° Southeast 449 517 37,000 120 Climbing FlightAware
10:20AM 40.3590 21.2670 127° Southeast 458 527 37,000  Level FlightAware
10:20AM 40.3090 21.3540 127° Southeast 459 528 37,000  Level FlightAware
10:21AM 40.2520 21.4520 127° Southeast 459 528 37,000  Level FlightAware
10:22AM 40.1930 21.5530 127° Southeast 460 529 37,000  Level FlightAware
10:22AM 40.1480 21.6310 127° Southeast 459 528 37,000  Level FlightAware
10:23AM 40.0900 21.7300 127° Southeast 456 525 37,000  Level FlightAware
10:24AM 40.0300 21.8320 128° Southeast 453 521 37,000  Level FlightAware
10:25AM 39.9820 21.9140 127° Southeast 451 519 37,000  Level FlightAware
10:25AM 39.9250 22.0110 127° Southeast 449 517 37,000  Level FlightAware
10:26AM 39.8750 22.0970 127° Southeast 450 518 37,000  Level FlightAware
10:27AM 39.8240 22.1820 128° Southeast 450 518 37,000  Level FlightAware
10:27AM 39.7640 22.2830 128° Southeast 450 518 37,000  Level FlightAware
10:28AM 39.7140 22.3670 128° Southeast 449 517 37,000  Level FlightAware
10:29AM 39.6600 22.4580 128° Southeast 447 514 37,000  Level FlightAware
10:29AM 39.6080 22.5440 128° Southeast 448 516 37,000  Level FlightAware
10:30AM 39.5500 22.6410 128° Southeast 449 517 37,000  Level FlightAware
10:31AM 39.4980 22.7270 128° Southeast 451 519 37,000  Level FlightAware
10:32AM 39.4470 22.8110 128° Southeast 451 519 37,000  Level FlightAware
10:32AM 39.3890 22.9070 128° Southeast 451 519 37,000  Level FlightAware
10:33AM 39.3410 22.9870 128° Southeast 449 517 37,000  Level FlightAware
10:34AM 39.2870 23.0750 128° Southeast 449 517 37,000  Level FlightAware
10:34AM 39.2300 23.1680 128° Southeast 449 517 37,000  Level FlightAware
10:35AM 39.1780 23.2540 128° Southeast 450 518 37,000  Level FlightAware
10:36AM 39.1210 23.3470 128° Southeast 452 520 37,000  Level FlightAware
10:36AM 39.0670 23.4340 129° Southeast 454 522 37,000  Level FlightAware
10:37AM 39.0080 23.5300 128° Southeast 456 525 37,000  Level FlightAware
10:38AM 38.9550 23.6150 129° Southeast 457 526 37,000  Level FlightAware
10:39AM 38.9030 23.6990 128° Southeast 457 526 37,000  Level FlightAware
10:39AM 38.8440 23.7940 129° Southeast 455 524 37,000  Level FlightAware
10:40AM 38.7850 23.8890 129° Southeast 449 517 37,000  Level FlightAware
10:41AM 38.7450 23.9520 129° Southeast 443 510 37,000  Level FlightAware
10:41AM 38.6950 24.0310 129° Southeast 448 516 37,000  Level FlightAware
10:42AM 38.6370 24.1230 129° Southeast 451 519 37,000  Level FlightAware
10:43AM 38.5840 24.2070 129° Southeast 453 521 37,000  Level FlightAware
10:43AM 38.5230 24.3040 129° Southeast 453 521 37,000  Level FlightAware
10:44AM 38.4720 24.3840 129° Southeast 452 520 37,000 60 Level FlightAware
10:45AM 38.4190 24.4670 129° Southeast 447 514 37,100  Climbing FlightAware
10:45AM 38.3620 24.5580 129° Southeast 440 506 37,000 -120 Descending FlightAware
10:46AM 38.3110 24.6370 129° Southeast 436 502 37,000  Level FlightAware
10:47AM 38.2540 24.7260 129° Southeast 432 497 37,000  Level FlightAware
10:48AM 38.2040 24.8040 129° Southeast 433 498 37,000 -120 Level FlightAware
10:48AM 38.1520 24.8840 130° Southeast 435 501 36,900  Descending FlightAware
10:49AM 38.0940 24.9740 129° Southeast 437 503 37,000 60 Climbing FlightAware
10:50AM 38.0420 25.0550 129° Southeast 441 507 37,000  Level FlightAware
10:50AM 37.9840 25.1430 130° Southeast 444 511 37,000  Level FlightAware
10:51AM 37.9330 25.2230 129° Southeast 446 513 37,000  Level FlightAware
10:52AM 37.8800 25.3030 130° Southeast 447 514 37,000  Level FlightAware
10:52AM 37.8190 25.3960 130° Southeast 448 516 37,000  Level FlightAware
10:53AM 37.7660 25.4780 129° Southeast 448 516 37,000  Level FlightAware
10:54AM 37.7160 25.5540 130° Southeast 447 514 37,000  Level FlightAware
10:55AM 37.6540 25.6470 130° Southeast 446 513 37,000  Level FlightAware
10:55AM 37.6010 25.7270 130° Southeast 448 516 37,000  Level FlightAware
10:56AM 37.5420 25.8160 130° Southeast 451 519 37,000  Level FlightAware
10:57AM 37.4890 25.8970 129° Southeast 454 522 37,000  Level FlightAware
10:57AM 37.4350 25.9780 130° Southeast 455 524 37,000  Level FlightAware
10:58AM 37.3740 26.0690 130° Southeast 454 522 37,000  Level FlightAware
10:59AM 37.3110 26.1620 130° Southeast 452 520 37,000  Level FlightAware
10:59AM 37.2620 26.2360 130° Southeast 451 519 37,000  Level FlightAware
11:00AM 37.2070 26.3180 130° Southeast 452 520 37,000  Level FlightAware
11:01AM 37.1440 26.4110 130° Southeast 454 522 37,000  Level FlightAware
11:02AM 37.0890 26.4920 130° Southeast 454 522 37,000  Level FlightAware
11:02AM 37.0320 26.5760 130° Southeast 454 522 37,000  Level FlightAware
11:03AM 36.9770 26.6570 130° Southeast 454 522 37,000  Level FlightAware
11:04AM 36.9210 26.7390 130° Southeast 452 520 37,000  Level FlightAware
11:04AM 36.8590 26.8300 130° Southeast 451 519 37,000  Level FlightAware
11:05AM 36.8070 26.9070 130° Southeast 452 520 37,000  Level FlightAware
11:06AM 36.7500 26.9880 131° Southeast 453 521 37,000  Level FlightAware
11:06AM 36.6940 27.0710 130° Southeast 453 521 37,000  Level FlightAware
11:07AM 36.6340 27.1570 131° Southeast 454 522 37,000  Level FlightAware
11:08AM 36.5740 27.2440 131° Southeast 455 524 37,000  Level FlightAware
11:09AM 36.5190 27.3230 131° Southeast 456 525 37,000  Level FlightAware
11:09AM 36.4630 27.4040 131° Southeast 456 525 37,000  Level FlightAware
11:10AM 36.4020 27.4910 131° Southeast 457 526 37,000  Level FlightAware
11:11AM 36.3470 27.5700 131° Southeast 448 516 37,000  Level FlightAware
11:11AM 36.2850 27.6580 131° Southeast 445 512 37,000  Level FlightAware
11:12AM 36.2310 27.7350 131° Southeast 447 514 37,000  Level FlightAware
11:13AM 36.1760 27.8130 131° Southeast 450 518 37,000  Level FlightAware
11:13AM 36.1210 27.8910 131° Southeast 447 514 37,000  Level FlightAware
11:14AM 36.0590 27.9790 131° Southeast 453 521 37,000  Level FlightAware
11:15AM 36.0030 28.0580 131° Southeast 454 522 37,000  Level FlightAware
11:16AM 35.9410 28.1450 131° Southeast 455 524 37,000  Level FlightAware
11:16AM 35.8860 28.2220 131° Southeast 455 524 37,000  Level FlightAware
11:17AM 35.8260 28.3060 131° Southeast 455 524 37,000  Level FlightAware
11:18AM 35.7690 28.3860 131° Southeast 454 522 37,000  Level FlightAware
11:18AM 35.7120 28.4640 132° Southeast 454 522 37,000  Level FlightAware
11:19AM 35.6490 28.5530 131° Southeast 453 521 37,000  Level FlightAware
11:20AM 35.5930 28.6300 132° Southeast 454 522 37,000  Level FlightAware
11:20AM 35.5370 28.7070 132° Southeast 453 521 37,000  Level FlightAware
11:21AM 35.4760 28.7920 131° Southeast 453 521 37,000  Level FlightAware
11:22AM 35.4270 28.8590 132° Southeast 453 521 37,000  Level FlightAware
11:23AM 35.3580 28.9530 132° Southeast 455 524 37,000  Level FlightAware
11:23AM 35.3010 29.0310 132° Southeast 456 525 37,000  Level FlightAware
11:24AM 35.2390 29.1170 131° Southeast 459 528 37,000  Level FlightAware
11:25AM 35.1850 29.1900 132° Southeast 460 529 37,000  Level FlightAware
11:25AM 35.1300 29.2670 131° Southeast 460 529 37,000  Level FlightAware
11:26AM 35.0610 29.3580 133° Southeast 456 525 37,000  Level FlightAware
11:27AM 35.0030 29.4380 131° Southeast 455 524 37,000  Level FlightAware
11:27AM 34.9420 29.5200 132° Southeast 455 524 37,000  Level FlightAware
11:28AM 34.8940 29.5840 132° Southeast 456 525 37,000  Level FlightAware
11:29AM 34.8300 29.6700 132° Southeast 456 525 37,000  Level FlightAware
11:30AM 34.7650 29.7570 132° Southeast 456 525 37,000  Level FlightAware
11:30AM 34.7080 29.8330 132° Southeast 456 525 37,000  Level FlightAware
11:31AM 34.6420 29.9210 132° Southeast 457 526 37,000  Level FlightAware
11:32AM 34.5950 29.9860 131° Southeast 457 526 37,000  Level FlightAware
11:33AM 34.5310 30.1070 123° Southeast 457 526 37,000  Level FlightAware
11:33AM 34.4870 30.2000 120° Southeast 455 524 37,000  Level FlightAware
11:34AM 34.4370 30.3030 120° Southeast 457 526 37,000  Level FlightAware
11:35AM 34.3640 30.4540 120° Southeast 460 529 37,000  Level FlightAware
11:36AM 34.2940 30.5990 120° Southeast 464 534 37,000  Level FlightAware
11:37AM 34.2440 30.7010 121° Southeast 465 535 37,000  Level FlightAware
11:38AM 34.1890 30.8130 121° Southeast 470 541 37,000  Level FlightAware
11:38AM 34.1450 30.9020 121° Southeast 470 541 37,000  Level FlightAware
11:39AM 34.0980 30.9980 121° Southeast 469 540 37,000  Level FlightAware
11:40AM 34.0480 31.1000 121° Southeast 469 540 37,000  Level FlightAware
11:41AM 34.0030 31.1920 121° Southeast 469 540 37,000  Level FlightAware
11:41AM 33.9510 31.2950 121° Southeast 469 540 37,000  Level FlightAware
11:42AM 33.9060 31.3860 121° Southeast 469 540 37,000  Level FlightAware
11:43AM 33.8620 31.4740 121° Southeast 469 540 37,000  Level FlightAware
11:43AM 33.8170 31.5640 121° Southeast 468 539 37,000  Level FlightAware
11:44AM 33.7680 31.6620 121° Southeast 467 537 37,000  Level FlightAware
11:45AM 33.7290 31.7410 121° Southeast 467 537 37,000  Level FlightAware
11:45AM 33.6720 31.8540 121° Southeast 466 536 37,000  Level FlightAware
11:46AM 33.6110 31.9740 121° Southeast 465 535 37,000  Level FlightAware
11:47AM 33.5650 32.0640 122° Southeast 467 537 37,000  Level FlightAware
11:48AM 33.5160 32.1620 121° Southeast 467 537 37,000  Level FlightAware
11:48AM 33.4720 32.2490 121° Southeast 467 537 37,000  Level FlightAware
11:49AM 33.4090 32.3760 121° Southeast 468 539 37,000  Level FlightAware
11:51AM 33.3190 32.5530 121° Southeast 468 539 37,000  Level FlightAware
11:52AM 33.2680 32.6530 121° Southeast 468 539 37,000  Level FlightAware
11:52AM 33.2220 32.7430 121° Southeast 468 539 37,000  Level FlightAware
11:53AM 33.1710 32.8430 121° Southeast 468 539 37,000  Level FlightAware
11:54AM 33.1260 32.9300 122° Southeast 467 537 37,000  Level FlightAware
11:54AM 33.0760 33.0280 121° Southeast 466 536 37,000  Level FlightAware
11:55AM 33.0300 33.1170 122° Southeast 466 536 37,000  Level FlightAware
11:56AM 32.9840 33.2080 121° Southeast 465 535 37,000  Level FlightAware
11:56AM 32.9340 33.3030 122° Southeast 465 535 37,000  Level FlightAware
11:57AM 32.8710 33.4250 122° Southeast 460 529 37,000  Level FlightAware
11:58AM 32.8270 33.5090 122° Southeast 455 524 37,000  Level FlightAware
11:59AM 32.7760 33.6070 122° Southeast 452 520 37,000  Level FlightAware
11:59AM 32.7320 33.6910 122° Southeast 450 518 37,000  Level FlightAware
12:00PM 32.6890 33.7730 122° Southeast 450 518 37,000  Level FlightAware
12:01PM 32.6390 33.8680 122° Southeast 452 520 37,000  Level FlightAware
12:02PM 32.5950 33.9520 122° Southeast 454 522 37,000  Level FlightAware
12:02PM 32.5510 34.0350 122° Southeast 456 525 37,000  Level FlightAware
12:03PM 32.4980 34.1330 123° Southeast 459 528 37,000 -300 Level FlightAware
12:04PM 32.4440 34.2090 130° Southeast 454 522 36,600 -900 Descending FlightAware
12:04PM 32.3800 34.2840 135° Southeast 446 513 35,800 -1,560 Descending FlightAware
12:05PM 32.3210 34.3540 135° Southeast 452 520 34,400 -2,220 Descending FlightAware
12:06PM 32.2520 34.4380 134° Southeast 467 537 32,700 -2,280 Descending FlightAware
12:06PM 32.2030 34.5230 124° Southeast 466 536 31,200 -2,100 Descending FlightAware
12:07PM 32.1700 34.6060 115° Southeast 461 531 29,900 -2,160 Descending FlightAware
12:08PM 32.1340 34.7160 111° Southeast 446 513 28,200 -1,980 Descending FlightAware
12:09PM 32.1070 34.8040 110° East 430 495 27,100 -1,500 Descending FlightAware
12:09PM 32.0830 34.9050 106° East 427 491 26,100 -1,020 Descending FlightAware
12:10PM 32.0660 34.9780 105° East 426 490 25,800 -240 Descending FlightAware
12:11PM 32.0480 35.0540 106° East 426 490 25,800  Level FlightAware
12:11PM 32.0270 35.1500 104° East 426 490 25,800  Level FlightAware
12:12PM 32.0090 35.2260 106° East 426 490 25,800  Level FlightAware
12:13PM 31.9920 35.3020 105° East 426 490 25,800 -4,080 Level FlightAware
12:13PM 31.9520 35.4400 109° East 381 438 20,100 -4,320 Descending FlightAware
12:14PM 31.9380 35.5020 105° East 381 438 20,100 -540 Level FlightAware
12:15PM 31.9100 35.6070 107° East 377 434 19,400 -1,620 Descending FlightAware
12:16PM 31.8860 35.6830 110° East 369 425 17,700 -2,520 Descending FlightAware
12:16PM 31.8630 35.7580 110° East 353 406 16,100 -1,980 Descending FlightAware
12:17PM 31.8390 35.8360 110° East 321 369 14,900 -1,800 Descending FlightAware
12:18PM 31.8190 35.9000 110° East 300 345 13,600 -2,100 Descending FlightAware
12:18PM 31.8030 35.9650 106° East 283 326 12,000 -2,220 Descending FlightAware
12:19PM 31.8020 36.0270 91° East 278 320 10,500 -2,220 Descending FlightAware
12:19PM 31.8020 36.0470 90° East 278 320 10,000 -2,400 Descending FlightAware
12:20PM 31.8020 36.0870 90° East 280 322 8,900 -2,400 Descending FlightAware
12:20PM 31.8020 36.1080 90° East 281 323 8,400 -1,740 Descending FlightAware
12:20PM 31.8010 36.1550 91° East 265 305 7,600 -1,440 Descending FlightAware
12:21PM 31.8010 36.1900 90° East 263 303 7,100 -1,200 Descending FlightAware
12:21PM 31.7930 36.2110 114° Southeast 258 297 6,800 -840 Descending FlightAware
12:21PM 31.7800 36.2220 144° Southeast 250 288 6,700 -1,020 Descending FlightAware
12:22PM 31.7640 36.2260 168° South 254 292 6,300 -2,280 Descending FlightAware
12:22PM 31.7370 36.2100 207° Southwest 259 298 5,200 -2,280 Descending FlightAware
12:22PM 31.7320 36.1900 254° West 254 292 4,800 -1,080 Descending FlightAware
12:23PM 31.7360 36.1510 277° West 233 268 4,400 -780 Descending FlightAware
12:23PM 31.7350 36.1240 268° West 198 228 4,100 -900 Descending FlightAware
12:24PM 31.7310 36.0940 261° West 167 192 3,600 -900 Descending FlightAware
12:24PM 31.7280 36.0720 261° West 150 173 3,300 -780 Descending FlightAware
12:25PM 31.7250 36.0510 260° West 144 166 2,900 -720 Descending FlightAware
12:25PM 31.7210 36.0280 258° West 146 168 2,600 -360 Descending FlightAware
12:26PM 31.7180 36.0090 259° West 146 168 2,600  Level FlightAware
12:28PM 31.7226 35.9932 289° West  Level Estimated
12:29PM 31.7226 35.9932 140° Southeast  Level Estimated
12:30PM 31.7226 35.9932 140° Southeast  Level Estimated
12:31PM 31.7226 35.9932 140° Southeast  Level Estimated
12:32PM 31.7226 35.9932 140° Southeast  Level Estimated
12:33PM 31.7226 35.9932 140° Southeast  Level Estimated
12:34PM 31.7226 35.9932 140° Southeast  Level Estimated
12:35PM 31.7226 35.9932 140° Southeast  Level Estimated
12:36PM 31.7226 35.9932 140° Southeast  Level Estimated
12:37PM 31.7226 35.9932 140° Southeast  Level Estimated